Time;durP1;ratioP1;P1;durP2;ratioP2;P2;SDS_P1;SDS_P2;PMS_P1;PMS_P2;Temp;Humidity;BMP_temperature;BMP_pressure;BME280_temperature;BME280_humidity;BME280_pressure;Samples;Min_cycle;Max_cycle;Signal;HPM_P1;HPM_P2
2023/12/06 00:00:58;;;;;;;0.75;0.75;;;;;;;;;;10534184;28;20479;-75
2023/12/06 00:06:03;;;;;;;0.80;0.80;;;;;;;;;;10549760;28;20081;-75
2023/12/06 00:11:06;;;;;;;1.05;1.00;;;;;;;;;;10535505;28;20077;-75
2023/12/06 00:16:10;;;;;;;1.30;1.20;;;;;;;;;;10524021;28;20115;-75
2023/12/06 00:21:15;;;;;;;1.23;0.80;;;;;;;;;;10545328;28;20051;-75
2023/12/06 00:26:18;;;;;;;0.77;0.77;;;;;;;;;;10525977;28;20058;-75
2023/12/06 00:31:21;;;;;;;0.98;0.93;;;;;;;;;;10546507;28;20629;-75
2023/12/06 00:36:26;;;;;;;0.77;0.77;;;;;;;;;;10540910;28;20040;-75
2023/12/06 00:41:29;;;;;;;1.40;1.30;;;;;;;;;;10547836;28;20064;-75
2023/12/06 00:46:32;;;;;;;1.40;1.30;;;;;;;;;;10546867;28;20066;-75
2023/12/06 00:51:37;;;;;;;2.08;1.40;;;;;;;;;;10549476;28;20048;-75
2023/12/06 00:56:41;;;;;;;1.40;1.30;;;;;;;;;;10568095;27;20045;-75
2023/12/06 01:01:44;;;;;;;1.30;1.20;;;;;;;;;;10579298;27;20132;-75
2023/12/06 01:06:49;;;;;;;3.25;2.00;;;;;;;;;;10588350;27;20044;-75
2023/12/06 01:11:52;;;;;;;1.90;1.70;;;;;;;;;;10592109;27;20638;-75
2023/12/06 01:16:56;;;;;;;2.80;2.20;;;;;;;;;;10560905;27;20043;-75
2023/12/06 01:22:01;;;;;;;3.33;2.03;;;;;;;;;;10572252;27;20128;-75
2023/12/06 01:27:06;;;;;;;2.63;2.17;;;;;;;;;;10574380;27;20496;-75
2023/12/06 01:32:09;;;;;;;5.93;2.78;;;;;;;;;;10589580;27;20078;-75
2023/12/06 01:37:14;;;;;;;2.55;1.90;;;;;;;;;;10578800;27;20131;-75
2023/12/06 01:42:17;;;;;;;2.05;1.85;;;;;;;;;;10581300;27;20048;-75
2023/12/06 01:47:21;;;;;;;2.97;2.40;;;;;;;;;;10594148;27;20061;-75
2023/12/06 01:52:26;;;;;;;2.03;1.80;;;;;;;;;;10575870;27;20032;-75
2023/12/06 01:57:31;;;;;;;3.07;2.10;;;;;;;;;;10599174;27;20088;-75
2023/12/06 02:02:35;;;;;;;2.45;2.13;;;;;;;;;;10589169;27;20045;-75
2023/12/06 02:07:42;;;;;;;2.15;1.95;;;;;;;;;;10573660;27;20460;-75
2023/12/06 02:12:45;;;;;;;1.85;1.73;;;;;;;;;;10560295;27;20047;-75
2023/12/06 02:17:50;;;;;;;2.20;1.73;;;;;;;;;;10586746;27;20069;-75
2023/12/06 02:22:57;;;;;;;2.17;1.83;;;;;;;;;;10589146;27;20038;-75
2023/12/06 02:28:02;;;;;;;2.47;1.80;;;;;;;;;;10555436;27;20142;-75
2023/12/06 02:33:05;;;;;;;3.53;2.60;;;;;;;;;;10584588;27;20663;-75
2023/12/06 02:38:12;;;;;;;2.70;2.38;;;;;;;;;;10570647;27;20043;-75
2023/12/06 02:43:17;;;;;;;2.35;2.05;;;;;;;;;;10570885;27;20876;-75
2023/12/06 02:48:21;;;;;;;3.15;2.00;;;;;;;;;;10584006;27;20404;-75
2023/12/06 02:53:24;;;;;;;3.67;2.50;;;;;;;;;;10559139;27;20446;-75
2023/12/06 02:58:29;;;;;;;4.53;3.70;;;;;;;;;;10588474;27;20056;-75
2023/12/06 03:03:32;;;;;;;2.58;2.38;;;;;;;;;;10580925;27;20124;-75
2023/12/06 03:08:35;;;;;;;4.35;3.22;;;;;;;;;;10575548;27;20075;-75
2023/12/06 03:13:40;;;;;;;4.75;3.70;;;;;;;;;;10582555;28;20122;-75
2023/12/06 03:18:43;;;;;;;6.13;3.88;;;;;;;;;;10577204;28;20070;-75
2023/12/06 03:23:47;;;;;;;4.22;3.65;;;;;;;;;;10577106;28;20036;-76
2023/12/06 03:28:52;;;;;;;3.67;2.60;;;;;;;;;;10586396;28;20050;-76
2023/12/06 03:33:55;;;;;;;4.72;3.50;;;;;;;;;;10573416;28;20447;-76
2023/12/06 03:38:58;;;;;;;4.05;2.95;;;;;;;;;;10574015;28;20036;-76
2023/12/06 03:44:03;;;;;;;4.47;3.55;;;;;;;;;;10574491;28;20114;-75
2023/12/06 03:49:07;;;;;;;3.47;2.83;;;;;;;;;;10580369;28;20129;-75
2023/12/06 03:54:10;;;;;;;3.22;2.45;;;;;;;;;;10578399;28;20488;-75
2023/12/06 03:59:15;;;;;;;4.35;3.40;;;;;;;;;;10579109;28;20488;-75
2023/12/06 04:04:18;;;;;;;3.50;2.80;;;;;;;;;;10582498;27;20071;-75
2023/12/06 04:09:22;;;;;;;2.83;2.17;;;;;;;;;;10585352;27;20055;-75
2023/12/06 04:14:27;;;;;;;2.55;2.00;;;;;;;;;;10598607;27;20460;-75
2023/12/06 04:19:30;;;;;;;2.97;2.28;;;;;;;;;;10598667;27;20092;-75
2023/12/06 04:24:34;;;;;;;2.35;2.05;;;;;;;;;;10589316;27;20415;-75
2023/12/06 04:29:38;;;;;;;2.97;2.50;;;;;;;;;;10595123;27;20032;-76
2023/12/06 04:34:49;;;;;;;5.30;3.67;;;;;;;;;;10578226;27;20489;-75
2023/12/06 04:39:52;;;;;;;6.80;4.78;;;;;;;;;;10583932;27;20084;-75
2023/12/06 04:44:57;;;;;;;5.20;3.53;;;;;;;;;;10575547;27;20104;-75
2023/12/06 04:50:01;;;;;;;8.50;5.28;;;;;;;;;;10567920;27;20043;-75
2023/12/06 04:55:06;;;;;;;6.32;4.30;;;;;;;;;;10603639;27;20051;-75
2023/12/06 05:00:13;;;;;;;5.43;4.00;;;;;;;;;;10588034;27;20043;-75
2023/12/06 05:05:16;;;;;;;7.13;5.30;;;;;;;;;;10580747;27;20570;-75
2023/12/06 05:10:20;;;;;;;7.28;5.38;;;;;;;;;;10585136;27;20046;-75
2023/12/06 05:15:25;;;;;;;5.65;4.15;;;;;;;;;;10581720;27;20044;-75
2023/12/06 05:20:28;;;;;;;7.63;5.55;;;;;;;;;;10585173;27;20122;-75
2023/12/06 05:25:33;;;;;;;5.63;4.50;;;;;;;;;;10582995;27;20035;-75
2023/12/06 05:30:37;;;;;;;8.07;5.95;;;;;;;;;;10591443;27;20085;-75
2023/12/06 05:35:41;;;;;;;9.48;6.55;;;;;;;;;;10589894;27;20560;-75
2023/12/06 05:40:44;;;;;;;9.00;6.40;;;;;;;;;;10583944;27;20043;-75
2023/12/06 05:45:49;;;;;;;12.82;8.13;;;;;;;;;;10590135;27;20110;-75
2023/12/06 05:50:52;;;;;;;12.43;8.60;;;;;;;;;;10566082;27;20042;-75
2023/12/06 05:55:56;;;;;;;9.32;6.72;;;;;;;;;;10609708;22;20072;-74
2023/12/06 06:01:02;;;;;;;10.73;7.40;;;;;;;;;;10572841;27;20039;-74
2023/12/06 06:06:06;;;;;;;;;;;;;;;;;;10576730;27;20102;-74
2023/12/06 06:11:10;;;;;;;11.68;6.53;;;;;;;;;;10577897;27;19924;-73
2023/12/06 06:16:17;;;;;;;7.55;5.55;;;;;;;;;;10558659;27;20044;-73
2023/12/06 06:21:21;;;;;;;7.68;5.18;;;;;;;;;;10555277;27;20055;-73
2023/12/06 06:26:24;;;;;;;9.10;5.93;;;;;;;;;;10572913;27;20044;-73
2023/12/06 06:31:28;;;;;;;7.40;5.20;;;;;;;;;;10570167;27;20054;-74
2023/12/06 06:36:32;;;;;;;8.27;5.63;;;;;;;;;;10565452;28;20051;-74
2023/12/06 06:41:36;;;;;;;5.72;4.18;;;;;;;;;;10570107;27;20062;-74
2023/12/06 06:46:41;;;;;;;7.28;5.03;;;;;;;;;;10555232;27;20040;-74
2023/12/06 06:51:45;;;;;;;8.32;5.88;;;;;;;;;;10574228;27;20501;-74
2023/12/06 06:56:48;;;;;;;7.00;5.25;;;;;;;;;;10572412;27;20035;-74
2023/12/06 07:01:53;;;;;;;9.60;6.35;;;;;;;;;;10577701;27;20039;-74
2023/12/06 07:06:56;;;;;;;9.75;6.55;;;;;;;;;;10569345;27;20113;-73
2023/12/06 07:11:59;;;;;;;6.25;4.82;;;;;;;;;;10573365;28;20066;-74
2023/12/06 07:17:04;;;;;;;6.18;4.30;;;;;;;;;;10572923;28;20558;-74
2023/12/06 07:22:08;;;;;;;7.63;5.25;;;;;;;;;;10556784;28;20048;-74
2023/12/06 07:27:11;;;;;;;9.18;6.40;;;;;;;;;;10573218;28;20044;-74
2023/12/06 07:32:15;;;;;;;10.63;7.05;;;;;;;;;;10576078;28;20143;-74
2023/12/06 07:37:19;;;;;;;8.80;5.97;;;;;;;;;;10581478;27;20043;-74
2023/12/06 07:42:22;;;;;;;8.07;5.45;;;;;;;;;;10583827;27;20051;-74
2023/12/06 07:47:27;;;;;;;14.93;9.05;;;;;;;;;;10580816;27;20044;-74
2023/12/06 07:52:33;;;;;;;11.13;7.38;;;;;;;;;;10584860;27;20043;-73
2023/12/06 07:57:36;;;;;;;;;;;;;;;;;;10581579;27;20032;-74
2023/12/06 08:02:42;;;;;;;12.65;8.07;;;;;;;;;;10564254;27;19926;-74
2023/12/06 08:07:45;;;;;;;12.77;7.50;;;;;;;;;;10579312;28;20032;-74
2023/12/06 08:12:49;;;;;;;9.45;6.60;;;;;;;;;;10578717;27;20553;-74
2023/12/06 08:17:54;;;;;;;10.80;7.65;;;;;;;;;;10584589;27;20046;-74
2023/12/06 08:22:57;;;;;;;7.68;5.40;;;;;;;;;;10579979;27;20063;-73
2023/12/06 08:28:01;;;;;;;8.93;6.13;;;;;;;;;;10582545;27;20099;-73
2023/12/06 08:33:05;;;;;;;9.30;6.78;;;;;;;;;;10586068;27;20047;-74
2023/12/06 08:38:09;;;;;;;10.55;7.30;;;;;;;;;;10582982;27;20519;-73
2023/12/06 08:43:12;;;;;;;8.93;7.07;;;;;;;;;;10585754;27;20514;-74
2023/12/06 08:48:16;;;;;;;13.65;8.80;;;;;;;;;;10579305;27;20107;-74
2023/12/06 08:53:20;;;;;;;8.38;6.20;;;;;;;;;;10580522;27;20442;-73
2023/12/06 08:58:23;;;;;;;6.35;4.88;;;;;;;;;;10580914;27;20039;-74
2023/12/06 09:03:28;;;;;;;8.80;5.90;;;;;;;;;;10583748;27;20415;-74
2023/12/06 09:08:32;;;;;;;7.30;5.40;;;;;;;;;;10584549;27;20221;-74
2023/12/06 09:13:37;;;;;;;6.00;4.15;;;;;;;;;;10583252;27;20042;-74
2023/12/06 09:18:41;;;;;;;5.25;3.90;;;;;;;;;;10560559;27;20043;-73
2023/12/06 09:23:45;;;;;;;8.75;6.32;;;;;;;;;;10585127;27;20078;-74
2023/12/06 09:28:48;;;;;;;9.48;6.15;;;;;;;;;;10579062;27;20036;-73
2023/12/06 09:33:53;;;;;;;7.65;5.43;;;;;;;;;;10580496;27;20428;-73
2023/12/06 09:38:58;;;;;;;11.23;8.00;;;;;;;;;;10563636;28;20035;-74
2023/12/06 09:44:02;;;;;;;9.52;7.10;;;;;;;;;;10569865;28;20048;-73
2023/12/06 09:49:07;;;;;;;10.88;7.15;;;;;;;;;;10571314;28;20062;-74
2023/12/06 09:54:10;;;;;;;8.37;5.70;;;;;;;;;;10574110;28;20043;-73
2023/12/06 09:59:14;;;;;;;9.32;7.15;;;;;;;;;;10573559;28;20050;-74
2023/12/06 10:04:19;;;;;;;7.88;5.20;;;;;;;;;;10573616;28;20423;-73
2023/12/06 10:09:22;;;;;;;7.60;5.70;;;;;;;;;;10573706;28;20052;-73
2023/12/06 10:14:26;;;;;;;9.25;6.35;;;;;;;;;;10573023;28;20462;-74
2023/12/06 10:19:31;;;;;;;7.93;5.95;;;;;;;;;;10572644;28;20024;-73
2023/12/06 10:24:41;;;;;;;9.48;7.45;;;;;;;;;;10573125;28;20100;-73
2023/12/06 10:29:44;;;;;;;9.77;6.13;;;;;;;;;;10572319;28;20040;-73
2023/12/06 10:34:50;;;;;;;8.10;5.60;;;;;;;;;;10572914;28;20050;-74
2023/12/06 10:39:59;;;;;;;7.20;5.40;;;;;;;;;;10572136;28;20046;-73
2023/12/06 10:45:04;;;;;;;5.00;4.32;;;;;;;;;;10571833;28;20042;-73
2023/12/06 10:50:12;;;;;;;6.72;5.25;;;;;;;;;;10572839;28;20644;-74
2023/12/06 10:55:16;;;;;;;5.63;4.00;;;;;;;;;;10571284;28;20052;-73
2023/12/06 11:00:20;;;;;;;4.55;3.75;;;;;;;;;;10571261;28;20459;-73
2023/12/06 11:05:28;;;;;;;7.93;5.22;;;;;;;;;;10571970;28;20052;-73
2023/12/06 11:10:40;;;;;;;5.70;4.70;;;;;;;;;;10572279;28;20035;-74
2023/12/06 11:15:55;;;;;;;6.45;4.75;;;;;;;;;;10570472;28;20485;-73
2023/12/06 11:21:00;;;;;;;7.97;5.70;;;;;;;;;;10571594;28;20140;-74
2023/12/06 11:26:04;;;;;;;7.88;6.05;;;;;;;;;;10570565;28;20051;-73
2023/12/06 11:31:08;;;;;;;6.45;4.82;;;;;;;;;;10570700;28;20048;-73
2023/12/06 11:36:16;;;;;;;6.63;5.30;;;;;;;;;;10571109;28;20143;-74
2023/12/06 11:41:22;;;;;;;5.13;3.50;;;;;;;;;;10573975;28;20059;-73
2023/12/06 11:46:27;;;;;;;6.32;4.18;;;;;;;;;;10583267;28;20495;-74
2023/12/06 11:51:31;;;;;;;5.13;3.90;;;;;;;;;;10579180;28;20044;-74
2023/12/06 11:56:34;;;;;;;5.18;3.72;;;;;;;;;;10535409;22;20052;-76
2023/12/06 12:01:43;;;;;;;6.90;5.18;;;;;;;;;;10495881;28;20064;-75
2023/12/06 12:06:49;;;;;;;6.90;5.07;;;;;;;;;;10505925;28;20045;-75
2023/12/06 12:11:53;;;;;;;7.95;5.57;;;;;;;;;;10507929;28;20595;-75
2023/12/06 12:16:57;;;;;;;6.75;4.65;;;;;;;;;;10509138;28;20051;-75
2023/12/06 12:22:05;;;;;;;5.88;4.35;;;;;;;;;;10515916;28;20043;-75
2023/12/06 12:27:08;;;;;;;5.55;4.43;;;;;;;;;;10523428;28;20444;-75
2023/12/06 12:32:12;;;;;;;8.85;6.28;;;;;;;;;;10520747;28;20107;-75
2023/12/06 12:37:17;;;;;;;11.05;7.25;;;;;;;;;;10518420;28;20044;-75
2023/12/06 12:42:20;;;;;;;10.23;6.63;;;;;;;;;;10510447;28;20135;-75
2023/12/06 12:47:24;;;;;;;6.88;5.05;;;;;;;;;;10504289;28;20048;-75
2023/12/06 12:52:33;;;;;;;11.38;6.55;;;;;;;;;;10495139;28;20485;-75
2023/12/06 12:57:37;;;;;;;6.63;4.82;;;;;;;;;;10549271;28;20050;-75
2023/12/06 13:02:40;;;;;;;10.40;5.80;;;;;;;;;;10549852;28;20475;-75
2023/12/06 13:07:45;;;;;;;5.80;4.07;;;;;;;;;;10561998;28;20039;-75
2023/12/06 13:12:48;;;;;;;6.53;5.00;;;;;;;;;;10549934;28;20042;-75
2023/12/06 13:17:52;;;;;;;5.97;4.28;;;;;;;;;;10562835;28;20238;-75
2023/12/06 13:22:56;;;;;;;8.77;6.25;;;;;;;;;;10557937;28;20119;-75
2023/12/06 13:28:00;;;;;;;7.00;4.22;;;;;;;;;;10544751;28;20399;-75
2023/12/06 13:33:03;;;;;;;9.32;5.95;;;;;;;;;;10560573;28;20400;-75
2023/12/06 13:38:08;;;;;;;5.25;3.90;;;;;;;;;;10547842;28;20042;-75
2023/12/06 13:43:11;;;;;;;9.80;6.80;;;;;;;;;;10558932;28;20053;-75
2023/12/06 13:48:14;;;;;;;6.25;4.95;;;;;;;;;;10519984;28;20477;-75
2023/12/06 13:53:19;;;;;;;7.18;4.68;;;;;;;;;;10536021;28;20456;-76
2023/12/06 13:58:22;;;;;;;8.85;6.25;;;;;;;;;;10529356;28;20032;-75
2023/12/06 14:03:27;;;;;;;8.23;5.00;;;;;;;;;;10535145;28;20106;-75
2023/12/06 14:08:31;;;;;;;5.50;3.95;;;;;;;;;;10525957;28;20050;-75
2023/12/06 14:13:36;;;;;;;6.67;4.00;;;;;;;;;;10530332;28;20039;-75
2023/12/06 14:18:39;;;;;;;6.05;3.65;;;;;;;;;;10503875;28;20313;-73
2023/12/06 14:23:44;;;;;;;7.13;5.28;;;;;;;;;;10525656;28;20032;-73
2023/12/06 14:28:47;;;;;;;4.00;2.90;;;;;;;;;;10517551;28;20044;-72
2023/12/06 14:33:50;;;;;;;7.18;5.05;;;;;;;;;;10531586;28;20044;-73
2023/12/06 14:38:55;;;;;;;7.53;4.18;;;;;;;;;;10532508;28;20119;-72
2023/12/06 14:43:58;;;;;;;10.73;7.38;;;;;;;;;;10530441;28;20392;-73
2023/12/06 14:49:02;;;;;;;9.45;6.60;;;;;;;;;;10531917;28;20036;-73
2023/12/06 14:54:06;;;;;;;6.22;4.32;;;;;;;;;;10541679;28;20088;-73
2023/12/06 14:59:10;;;;;;;5.45;3.80;;;;;;;;;;10510433;28;20044;-73
2023/12/06 15:04:13;;;;;;;3.97;3.13;;;;;;;;;;10534805;28;20040;-73
2023/12/06 15:09:18;;;;;;;5.60;3.60;;;;;;;;;;10518109;28;20047;-72
2023/12/06 15:14:22;;;;;;;4.25;3.25;;;;;;;;;;10526947;28;20039;-73
2023/12/06 15:19:25;;;;;;;5.75;3.17;;;;;;;;;;10534465;28;20123;-73
2023/12/06 15:24:33;;;;;;;4.07;2.75;;;;;;;;;;10535182;28;20097;-73
2023/12/06 15:29:36;;;;;;;6.47;4.28;;;;;;;;;;10537180;28;20040;-72
2023/12/06 15:34:40;;;;;;;4.53;3.00;;;;;;;;;;10525241;28;20044;-72
2023/12/06 15:39:45;;;;;;;4.85;3.08;;;;;;;;;;10532830;28;20066;-72
2023/12/06 15:44:48;;;;;;;4.60;3.28;;;;;;;;;;10546169;28;20044;-73
2023/12/06 15:49:51;;;;;;;4.75;3.25;;;;;;;;;;10534678;28;20086;-73
2023/12/06 15:54:57;;;;;;;6.05;3.85;;;;;;;;;;10504647;28;20449;-73
2023/12/06 16:00:01;;;;;;;6.33;3.73;;;;;;;;;;10542966;28;20812;-72
2023/12/06 16:05:15;;;;;;;9.63;4.80;;;;;;;;;;10540774;28;20044;-73
2023/12/06 16:10:19;;;;;;;8.73;4.78;;;;;;;;;;10546640;28;20040;-72
2023/12/06 16:15:23;;;;;;;6.43;4.20;;;;;;;;;;10539597;28;20055;-73
2023/12/06 16:20:26;;;;;;;6.55;4.88;;;;;;;;;;10543327;28;20051;-72
2023/12/06 16:25:31;;;;;;;6.63;4.47;;;;;;;;;;10560305;28;20054;-73
2023/12/06 16:30:35;;;;;;;5.88;3.88;;;;;;;;;;10562041;28;20510;-72
2023/12/06 16:35:39;;;;;;;4.30;3.30;;;;;;;;;;10550719;28;20036;-73
2023/12/06 16:40:44;;;;;;;6.35;4.47;;;;;;;;;;10567157;28;20048;-72
2023/12/06 16:45:48;;;;;;;5.28;3.28;;;;;;;;;;10541822;28;20066;-72
2023/12/06 16:50:51;;;;;;;4.22;3.15;;;;;;;;;;10563996;28;20089;-72
2023/12/06 16:55:55;;;;;;;6.07;3.60;;;;;;;;;;10562550;28;20051;-73
2023/12/06 17:00:59;;;;;;;6.18;3.63;;;;;;;;;;10549990;28;20052;-73
2023/12/06 17:06:02;;;;;;;4.97;3.30;;;;;;;;;;10535002;28;20687;-72
2023/12/06 17:11:07;;;;;;;4.45;3.33;;;;;;;;;;10548943;28;22074;-75
2023/12/06 17:16:11;;;;;;;2.90;2.42;;;;;;;;;;10535532;28;20040;-75
2023/12/06 17:21:14;;;;;;;3.55;2.50;;;;;;;;;;10563948;28;20047;-75
2023/12/06 17:26:21;;;;;;;6.70;3.50;;;;;;;;;;10562740;28;20455;-75
2023/12/06 17:31:24;;;;;;;;;;;;;;;;;;10542458;28;20538;-75
2023/12/06 17:36:27;;;;;;;5.20;3.67;;;;;;;;;;10557958;28;19920;-75
2023/12/06 17:41:33;;;;;;;5.05;3.70;;;;;;;;;;10558887;28;20097;-75
2023/12/06 17:46:36;;;;;;;7.97;4.80;;;;;;;;;;10556308;28;20040;-75
2023/12/06 17:51:40;;;;;;;6.28;3.85;;;;;;;;;;10552976;28;20067;-75
2023/12/06 17:56:44;;;;;;;5.40;3.88;;;;;;;;;;10586457;22;20042;-74
2023/12/06 18:01:51;;;;;;;8.85;4.72;;;;;;;;;;10594792;27;20040;-74
2023/12/06 18:06:55;;;;;;;7.15;5.20;;;;;;;;;;10577394;27;20040;-74
2023/12/06 18:12:00;;;;;;;5.75;3.80;;;;;;;;;;10577811;27;20284;-74
2023/12/06 18:17:03;;;;;;;4.57;3.15;;;;;;;;;;10579843;27;20154;-74
2023/12/06 18:22:07;;;;;;;6.97;4.18;;;;;;;;;;10575909;27;20036;-74
2023/12/06 18:27:13;;;;;;;6.78;3.97;;;;;;;;;;10576590;27;20035;-74
2023/12/06 18:32:16;;;;;;;10.48;5.93;;;;;;;;;;10583639;27;20043;-74
2023/12/06 18:37:19;;;;;;;8.43;5.15;;;;;;;;;;10572629;27;20517;-74
2023/12/06 18:42:24;;;;;;;5.13;3.60;;;;;;;;;;10563928;27;20486;-74
2023/12/06 18:47:27;;;;;;;5.28;3.53;;;;;;;;;;10578259;27;20048;-73
2023/12/06 18:52:30;;;;;;;6.05;3.20;;;;;;;;;;10591589;27;20049;-74
2023/12/06 18:57:35;;;;;;;5.55;3.00;;;;;;;;;;10576594;27;20047;-74
2023/12/06 19:02:39;;;;;;;3.60;2.78;;;;;;;;;;10592511;27;20362;-74
2023/12/06 19:07:43;;;;;;;3.35;2.67;;;;;;;;;;10590517;27;20487;-73
2023/12/06 19:12:47;;;;;;;3.30;2.90;;;;;;;;;;10580108;27;20031;-73
2023/12/06 19:17:50;;;;;;;4.07;2.92;;;;;;;;;;10581740;27;20050;-74
2023/12/06 19:22:54;;;;;;;3.60;2.65;;;;;;;;;;10597366;28;20039;-74
2023/12/06 19:27:59;;;;;;;6.70;3.22;;;;;;;;;;10566303;28;20044;-74
2023/12/06 19:33:02;;;;;;;4.47;3.15;;;;;;;;;;10585542;27;20082;-73
2023/12/06 19:38:05;;;;;;;4.88;2.72;;;;;;;;;;10589089;27;20085;-73
2023/12/06 19:43:10;;;;;;;4.65;3.20;;;;;;;;;;10575526;27;20047;-74
2023/12/06 19:48:14;;;;;;;4.25;2.83;;;;;;;;;;10597040;27;20472;-74
2023/12/06 19:53:17;;;;;;;4.03;3.05;;;;;;;;;;10564172;27;20044;-74
2023/12/06 19:58:22;;;;;;;6.90;3.78;;;;;;;;;;10581666;27;20066;-73
2023/12/06 20:03:25;;;;;;;8.85;5.50;;;;;;;;;;10566447;27;20063;-73
2023/12/06 20:08:29;;;;;;;7.35;4.60;;;;;;;;;;10569969;27;20115;-74
2023/12/06 20:13:34;;;;;;;8.43;5.63;;;;;;;;;;10579054;27;20067;-73
2023/12/06 20:18:37;;;;;;;9.32;5.07;;;;;;;;;;10571966;27;20111;-73
2023/12/06 20:23:40;;;;;;;12.15;6.28;;;;;;;;;;10579008;27;20031;-73
2023/12/06 20:28:45;;;;;;;14.93;8.73;;;;;;;;;;10578169;27;20039;-73
2023/12/06 20:33:50;;;;;;;11.90;6.95;;;;;;;;;;10556017;27;20035;-74
2023/12/06 20:38:54;;;;;;;10.20;5.83;;;;;;;;;;10569201;27;20459;-73
2023/12/06 20:43:59;;;;;;;9.63;5.88;;;;;;;;;;10569233;27;20055;-73
2023/12/06 20:49:02;;;;;;;11.95;6.20;;;;;;;;;;10575615;27;20035;-73
2023/12/06 20:54:06;;;;;;;13.73;7.13;;;;;;;;;;10573940;27;20484;-73
2023/12/06 20:59:10;;;;;;;9.90;5.97;;;;;;;;;;10568656;27;20488;-73
2023/12/06 21:04:14;;;;;;;7.47;5.45;;;;;;;;;;10571364;27;20745;-74
2023/12/06 21:09:17;;;;;;;7.57;4.45;;;;;;;;;;10578678;27;20089;-73
2023/12/06 21:14:22;;;;;;;5.30;3.47;;;;;;;;;;10552210;27;20036;-73
2023/12/06 21:19:25;;;;;;;4.35;3.00;;;;;;;;;;10553878;27;20134;-74
2023/12/06 21:24:29;;;;;;;5.40;3.03;;;;;;;;;;10580389;27;20067;-73
2023/12/06 21:29:37;;;;;;;4.82;3.30;;;;;;;;;;10571023;27;20051;-74
2023/12/06 21:34:41;;;;;;;4.95;3.22;;;;;;;;;;10577762;27;20032;-74
2023/12/06 21:39:44;;;;;;;4.32;3.25;;;;;;;;;;10576394;27;20035;-73
2023/12/06 21:44:49;;;;;;;8.50;5.10;;;;;;;;;;10581660;27;20066;-73
2023/12/06 21:49:52;;;;;;;8.77;5.40;;;;;;;;;;10597168;27;20427;-74
2023/12/06 21:54:56;;;;;;;9.25;5.25;;;;;;;;;;10592539;27;20117;-73
2023/12/06 22:00:00;;;;;;;8.75;5.25;;;;;;;;;;10572891;27;20050;-73
2023/12/06 22:05:08;;;;;;;8.55;5.45;;;;;;;;;;10586223;27;20044;-73
2023/12/06 22:10:11;;;;;;;8.32;4.60;;;;;;;;;;10596688;27;20518;-73
2023/12/06 22:15:16;;;;;;;6.38;4.53;;;;;;;;;;10593831;27;20049;-73
2023/12/06 22:20:20;;;;;;;6.93;4.20;;;;;;;;;;10596506;27;20050;-73
2023/12/06 22:25:23;;;;;;;5.97;3.83;;;;;;;;;;10590651;27;20399;-73
2023/12/06 22:30:28;;;;;;;7.72;4.88;;;;;;;;;;10598293;27;20050;-74
2023/12/06 22:35:31;;;;;;;6.28;4.10;;;;;;;;;;10592647;27;20032;-73
2023/12/06 22:40:34;;;;;;;8.50;4.25;;;;;;;;;;10574532;27;20056;-74
2023/12/06 22:45:39;;;;;;;8.90;4.90;;;;;;;;;;10582324;27;20111;-73
2023/12/06 22:50:42;;;;;;;7.25;4.53;;;;;;;;;;10597214;27;20057;-73
2023/12/06 22:55:45;;;;;;;11.55;5.07;;;;;;;;;;10600821;27;20112;-73
2023/12/06 23:00:50;;;;;;;6.30;4.40;;;;;;;;;;10576654;27;20055;-73
2023/12/06 23:05:53;;;;;;;7.15;4.57;;;;;;;;;;10582472;27;20031;-73
2023/12/06 23:10:56;;;;;;;7.47;5.07;;;;;;;;;;10576160;27;20039;-73
2023/12/06 23:16:01;;;;;;;9.23;4.95;;;;;;;;;;10591676;27;20046;-73
2023/12/06 23:21:05;;;;;;;8.63;4.30;;;;;;;;;;10584616;28;20331;-73
2023/12/06 23:26:08;;;;;;;7.53;4.95;;;;;;;;;;10586441;28;20096;-73
2023/12/06 23:31:12;;;;;;;7.53;4.53;;;;;;;;;;10577893;28;20050;-73
2023/12/06 23:36:16;;;;;;;8.63;4.78;;;;;;;;;;10584800;28;20468;-73
2023/12/06 23:41:19;;;;;;;7.20;4.63;;;;;;;;;;10579218;28;20467;-73
2023/12/06 23:46:24;;;;;;;6.40;4.35;;;;;;;;;;10561067;28;20074;-73
2023/12/06 23:51:27;;;;;;;7.63;4.93;;;;;;;;;;10569392;28;20074;-73
2023/12/06 23:56:31;;;;;;;6.90;4.25;;;;;;;;;;10572544;22;20123;-74
